Главная страница
METAR-TAF:

METAR-TAF

Аэропорты :

Бауэрфилд

Порт-Вила, Эфате, Вануату

широта: 17-42S, долгота: 168-18E, высота над уровнем моря: 20 м

Текущие метеонаблюдения

Эта сводка был подготовлена 34 минут назад, в 15:00 UTC
Ветер 2 Узел переменных направлений
Температура 26°C
Влажность 94%
Давление 1006 hPa
Видимость 10 км и более
небольшая облачность на высоте 1800 фута
Отдельные облака на высоте 10000 фута
Рассеянная облачность на высоте 30000 фута

METAR: NVVV 261500Z VRB02KT 9999 FEW018 SCT100 BKN300 26/25 Q1006

Время: 02:34 (15:34 UTC)

Прогноз

Эта сводка был подготовлена 4 часа и 34 минут назад, в 11:00 UTC
Прогноз действительный с 26-го 12 UTC до 27-го 12 UTC
Ветер 2 Узел переменных направлений
Видимость 10 км и более
Отдельные облака на высоте 2000 фута
Вероятность 40%
между IN и TE UTC
Видимость: 9000 м
Рассеянная облачность на высоте 1800 фута
небольшие ливневые дожди,

TAF: NVVV 261100Z 2612/2712 VRB02KT 9999 SCT020 PROB40 INTER 2612/2618 9000 -SHRA BKN018

Метеонаблюдения и прогнозы для более 4000 аэропортов (сводки METAR и TAF).

Имеющиеся станции представлены на карте желтыми и красными точками.

Чтобы увидеть название станции, наведите на нее мышь.

Затем щелкните, чтобы увидеть метеонаблюдения и метеопрогнозы.

Управление картой: чтобы увеличить масштаб, щелкните зеленые кнопки с черным крестиком; чтобы уменьшить масштаб, щелкните зеленую кнопку с тире; для просмотра соседних карт щелкайте зеленые стрелки.


METAR-TAF: